createdAt,value
2022-11-05T10:51:20.241Z,9.34
2022-11-05T10:53:57.378Z,9.39
2022-11-05T10:56:34.283Z,9.50
2022-11-05T10:59:06.729Z,9.52
2022-11-05T11:01:37.844Z,9.53
2022-11-05T11:04:16.837Z,9.58
2022-11-05T11:06:50.653Z,9.53
2022-11-05T11:09:25.357Z,9.58
2022-11-05T11:12:15.310Z,9.62
2022-11-05T11:14:43.585Z,9.63
2022-11-05T11:17:26.582Z,9.69
2022-11-05T11:20:19.773Z,9.79
2022-11-05T11:23:00.537Z,9.82
2022-11-05T11:25:30.331Z,9.97
2022-11-05T11:28:03.296Z,10.21
2022-11-05T11:30:31.820Z,10.26
2022-11-05T11:33:06.841Z,10.37
2022-11-05T11:35:37.647Z,10.57
2022-11-05T11:38:07.900Z,10.68
2022-11-05T11:40:38.335Z,10.80
2022-11-05T11:43:15.298Z,10.85
2022-11-05T11:45:48.034Z,10.99
2022-11-05T11:48:22.481Z,11.07
2022-11-05T11:50:50.880Z,11.27
2022-11-05T11:53:35.398Z,11.36
2022-11-05T11:56:15.941Z,11.35
2022-11-05T11:58:46.712Z,11.48
2022-11-05T12:01:46.494Z,11.44
2022-11-05T12:04:26.161Z,11.48
2022-11-05T12:07:05.732Z,11.48
2022-11-05T12:09:51.294Z,11.30
2022-11-05T12:12:25.705Z,11.12
2022-11-05T12:14:58.999Z,10.94
2022-11-05T12:17:36.284Z,10.84
2022-11-05T12:20:24.286Z,10.72
2022-11-05T12:23:14.992Z,10.59
2022-11-05T12:25:49.874Z,10.47
2022-11-05T12:28:36.091Z,10.37
2022-11-05T12:31:15.242Z,10.25
2022-11-05T12:33:52.276Z,10.25
2022-11-05T12:36:33.669Z,10.35
2022-11-05T12:39:25.894Z,10.42
2022-11-05T12:42:02.083Z,10.44
2022-11-05T12:44:45.356Z,10.66
2022-11-05T12:47:27.704Z,10.93
2022-11-05T12:50:11.050Z,11.26
2022-11-05T12:53:09.523Z,11.34
2022-11-05T12:55:45.481Z,11.32
2022-11-05T12:58:22.565Z,11.25
2022-11-05T13:00:57.068Z,11.15
2022-11-05T13:03:31.830Z,10.99
2022-11-05T13:06:06.730Z,10.89
2022-11-05T13:08:40.840Z,10.81
2022-11-05T13:11:17.533Z,10.82
2022-11-05T13:13:55.004Z,10.86
2022-11-05T13:16:29.442Z,10.98
2022-11-05T13:19:01.173Z,11.02
2022-11-05T13:21:30.545Z,11.04
2022-11-05T13:24:05.045Z,11.16
2022-11-05T13:26:39.134Z,11.22
2022-11-05T13:29:14.261Z,11.27
2022-11-05T13:31:46.418Z,11.33
2022-11-05T13:34:14.622Z,11.38
2022-11-05T13:37:07.894Z,11.43
2022-11-05T13:39:42.557Z,11.44
2022-11-05T13:42:52.156Z,11.48
2022-11-05T13:45:48.814Z,11.52
2022-11-05T13:49:07.209Z,11.63
2022-11-05T13:53:46.247Z,11.81
2022-11-05T13:56:27.051Z,11.84
2022-11-05T13:59:29.196Z,11.80
2022-11-05T14:01:59.672Z,11.75
2022-11-05T14:04:32.563Z,11.68
2022-11-05T14:07:12.689Z,11.58
2022-11-05T14:09:43.155Z,11.54
2022-11-05T14:12:22.334Z,11.48
2022-11-05T14:14:58.482Z,11.41
2022-11-05T14:17:32.938Z,11.34
2022-11-05T14:20:27.465Z,11.30
2022-11-05T14:23:15.692Z,11.27
2022-11-05T14:26:14.400Z,11.25
2022-11-05T14:28:47.872Z,11.24
2022-11-05T14:31:41.088Z,11.19
2022-11-05T14:34:21.828Z,11.16
2022-11-05T14:37:03.980Z,11.14
2022-11-05T14:39:33.556Z,11.15
2022-11-05T14:42:05.373Z,11.13
2022-11-05T14:44:36.602Z,11.07
2022-11-05T14:47:07.075Z,11.03
2022-11-05T14:49:39.264Z,10.97
2022-11-05T14:52:10.421Z,10.92
2022-11-05T14:54:43.921Z,10.88
2022-11-05T14:57:16.026Z,10.85
2022-11-05T15:00:01.942Z,10.79
2022-11-05T15:02:36.191Z,10.70
2022-11-05T15:05:39.181Z,10.70
2022-11-05T15:08:30.742Z,10.70
2022-11-05T15:11:07.659Z,10.71
2022-11-05T15:13:43.979Z,10.64
2022-11-05T15:16:20.371Z,10.56
2022-11-05T15:18:48.390Z,10.49
2022-11-05T15:21:18.251Z,10.43
2022-11-05T15:23:48.595Z,10.35
2022-11-05T15:26:24.477Z,10.26
2022-11-05T15:28:54.924Z,10.19
2022-11-05T15:31:31.824Z,10.08
2022-11-05T15:34:21.786Z,9.99
2022-11-05T15:36:52.302Z,9.93
2022-11-05T15:39:40.714Z,9.85
2022-11-05T15:42:16.356Z,9.78
2022-11-05T15:44:47.859Z,9.71
2022-11-05T15:47:18.764Z,9.64
2022-11-05T15:49:48.825Z,9.59
2022-11-05T15:52:18.920Z,9.53
2022-11-05T15:54:47.479Z,9.47
2022-11-05T15:57:21.882Z,9.41
2022-11-05T15:59:51.562Z,9.38
2022-11-05T16:02:26.555Z,9.32
2022-11-05T16:04:54.665Z,9.29
2022-11-05T16:07:22.990Z,9.24
2022-11-05T16:09:56.204Z,9.20
2022-11-05T16:12:36.513Z,9.15
2022-11-05T16:15:20.875Z,9.13
2022-11-05T16:17:52.231Z,9.10
2022-11-05T16:20:29.857Z,9.10
2022-11-05T16:22:59.417Z,9.07
2022-11-05T16:25:38.427Z,9.04
2022-11-05T16:28:16.729Z,9.02
2022-11-05T16:30:55.239Z,8.97
2022-11-05T16:33:23.537Z,8.94
2022-11-05T16:35:51.853Z,8.92
2022-11-05T16:38:24.168Z,8.90
2022-11-05T16:40:51.910Z,8.88
2022-11-05T16:43:21.812Z,8.87
2022-11-05T16:45:49.726Z,8.83
2022-11-05T16:48:18.825Z,8.82
2022-11-05T16:50:46.999Z,8.80
2022-11-05T16:53:15.154Z,8.77
2022-11-05T16:55:44.847Z,8.76
2022-11-05T16:58:20.591Z,8.75
2022-11-05T17:00:49.220Z,8.74
2022-11-05T17:03:18.333Z,8.73
2022-11-05T17:05:46.454Z,8.73
2022-11-05T17:08:14.650Z,8.71
2022-11-05T17:10:42.698Z,8.70
2022-11-05T17:13:13.811Z,8.70
2022-11-05T17:15:44.067Z,8.70
2022-11-05T17:18:17.101Z,8.68
2022-11-05T17:20:49.986Z,8.68
2022-11-05T17:23:19.354Z,8.69
2022-11-05T17:25:49.100Z,8.68
2022-11-05T17:28:17.791Z,8.70
2022-11-05T17:30:52.207Z,8.71
2022-11-05T17:33:21.776Z,8.71
2022-11-05T17:35:51.357Z,8.74
2022-11-05T17:38:19.481Z,8.74
2022-11-05T17:40:47.380Z,8.73
2022-11-05T17:43:16.337Z,8.75
2022-11-05T17:45:45.439Z,8.75
2022-11-05T17:48:13.388Z,8.75
2022-11-05T17:50:42.877Z,8.76
2022-11-05T17:53:13.132Z,8.76
2022-11-05T17:55:42.414Z,8.76
2022-11-05T17:58:10.223Z,8.75
2022-11-05T18:00:39.349Z,8.76
2022-11-05T18:03:07.106Z,8.74
2022-11-05T18:05:35.581Z,8.77
2022-11-05T18:08:03.682Z,8.75
2022-11-05T18:10:33.105Z,8.76
2022-11-05T18:13:00.794Z,8.74
2022-11-05T18:15:28.556Z,8.76
2022-11-05T18:17:56.311Z,8.79
2022-11-05T18:20:24.177Z,8.80
2022-11-05T18:22:52.477Z,8.82
2022-11-05T18:25:20.635Z,8.83
2022-11-05T18:27:49.721Z,8.84
2022-11-05T18:30:17.644Z,8.85
2022-11-05T18:32:46.405Z,8.87
2022-11-05T18:35:14.746Z,8.87
2022-11-05T18:37:43.454Z,8.88
2022-11-05T18:40:12.154Z,8.89
2022-11-05T18:42:40.340Z,8.89
2022-11-05T18:45:10.916Z,8.88
2022-11-05T18:47:38.869Z,8.87
2022-11-05T18:50:10.397Z,8.88
2022-11-05T18:52:38.339Z,8.89
2022-11-05T18:55:07.322Z,8.90
2022-11-05T18:57:35.361Z,8.93
2022-11-05T19:00:03.499Z,8.94
2022-11-05T19:02:33.234Z,8.93
2022-11-05T19:05:27.311Z,8.92
2022-11-05T19:07:49.014Z,8.94
2022-11-05T19:10:16.881Z,8.94
2022-11-05T19:12:44.693Z,8.97
2022-11-05T19:15:12.789Z,8.98
2022-11-05T19:17:41.961Z,8.98
2022-11-05T19:20:11.518Z,8.95
2022-11-05T19:22:39.310Z,8.91
2022-11-05T19:25:08.202Z,8.89
2022-11-05T19:27:36.809Z,8.86
2022-11-05T19:30:04.885Z,8.83
2022-11-05T19:32:32.799Z,8.82
2022-11-05T19:35:01.990Z,8.80
2022-11-05T19:37:29.762Z,8.80
2022-11-05T19:39:57.506Z,8.79
2022-11-05T19:42:25.258Z,8.78
2022-11-05T19:44:53.030Z,8.77
2022-11-05T19:47:20.910Z,8.75
2022-11-05T19:49:48.676Z,8.74
2022-11-05T19:52:17.743Z,8.75
2022-11-05T19:54:46.075Z,8.74
2022-11-05T19:57:14.185Z,8.74
2022-11-05T19:59:41.863Z,8.74
2022-11-05T20:02:15.930Z,8.75
2022-11-05T20:04:44.146Z,8.77
2022-11-05T20:07:11.962Z,8.78
2022-11-05T20:09:41.284Z,8.79
2022-11-05T20:12:09.132Z,8.78
2022-11-05T20:14:37.007Z,8.83
2022-11-05T20:17:04.891Z,8.86
2022-11-05T20:19:33.526Z,8.90
2022-11-05T20:22:01.604Z,8.93
2022-11-05T20:24:29.448Z,8.94
2022-11-05T20:26:58.562Z,8.97
2022-11-05T20:29:33.687Z,8.98
2022-11-05T20:32:03.360Z,8.99
2022-11-05T20:34:32.301Z,8.97
2022-11-05T20:37:00.282Z,8.97
2022-11-05T20:39:29.146Z,8.96
2022-11-05T20:42:00.404Z,8.92
2022-11-05T20:44:28.264Z,8.90
2022-11-05T20:46:56.772Z,8.89
2022-11-05T20:49:25.871Z,8.84
2022-11-05T20:51:54.047Z,8.80
2022-11-05T20:54:22.038Z,8.76
2022-11-05T20:56:49.950Z,8.72
2022-11-05T20:59:19.423Z,8.69
2022-11-05T21:01:47.197Z,8.65
2022-11-05T21:04:14.999Z,8.60
2022-11-05T21:06:42.804Z,8.54
2022-11-05T21:09:10.562Z,8.51
2022-11-05T21:11:52.346Z,8.47
2022-11-05T21:14:21.446Z,8.43
2022-11-05T21:16:49.117Z,8.42
2022-11-05T21:19:16.946Z,8.42
2022-11-05T21:21:44.614Z,8.45
2022-11-05T21:24:12.365Z,8.49
2022-11-05T21:26:40.098Z,8.53
2022-11-05T21:29:08.707Z,8.59
2022-11-05T21:31:38.685Z,8.61
2022-11-05T21:34:06.593Z,8.66
2022-11-05T21:36:34.460Z,8.68
2022-11-05T21:39:02.430Z,8.71
2022-11-05T21:41:30.204Z,8.75
2022-11-05T21:43:58.120Z,8.77
2022-11-05T21:46:25.953Z,8.79
2022-11-05T21:48:55.132Z,8.83
2022-11-05T21:51:40.301Z,8.85
2022-11-05T21:54:25.448Z,8.88
2022-11-05T21:57:11.140Z,8.92
2022-11-05T21:59:52.856Z,8.91
2022-11-05T22:02:23.041Z,8.94
2022-11-05T22:04:53.958Z,8.97
2022-11-05T22:07:24.767Z,8.97
2022-11-05T22:09:52.942Z,8.98
2022-11-05T22:12:22.647Z,8.97
2022-11-05T22:14:50.384Z,8.97
2022-11-05T22:17:18.656Z,8.99
2022-11-05T22:19:46.635Z,8.98
2022-11-05T22:22:15.853Z,8.99
2022-11-05T22:24:44.490Z,9.00
2022-11-05T22:27:14.134Z,9.02
2022-11-05T22:29:42.210Z,9.03
2022-11-05T22:32:11.557Z,9.03
2022-11-05T22:34:39.294Z,9.03
2022-11-05T22:37:07.169Z,9.01
2022-11-05T22:39:36.261Z,9.01
2022-11-05T22:42:08.248Z,9.00
2022-11-05T22:44:36.932Z,8.99
2022-11-05T22:47:05.414Z,8.97
2022-11-05T22:49:33.588Z,8.97
2022-11-05T22:52:01.384Z,8.97
2022-11-05T22:54:29.241Z,8.94
2022-11-05T22:56:58.477Z,8.94
2022-11-05T22:59:26.369Z,8.93
2022-11-05T23:01:54.217Z,8.95
2022-11-05T23:04:22.038Z,8.94
2022-11-05T23:07:07.218Z,8.94
2022-11-05T23:09:53.476Z,8.92
2022-11-05T23:12:27.112Z,8.92
2022-11-05T23:14:56.685Z,8.93
2022-11-05T23:17:42.322Z,8.92
2022-11-05T23:20:31.823Z,8.93
2022-11-05T23:23:17.229Z,8.94
2022-11-05T23:25:45.452Z,8.95
2022-11-05T23:28:15.320Z,8.98
2022-11-05T23:30:59.238Z,8.99
2022-11-05T23:33:27.193Z,9.00
2022-11-05T23:36:12.804Z,9.03
2022-11-05T23:38:40.679Z,9.04
2022-11-05T23:41:26.421Z,9.04
2022-11-05T23:44:13.385Z,9.06
2022-11-05T23:46:58.504Z,9.07
2022-11-05T23:49:26.570Z,9.09
2022-11-05T23:51:54.312Z,9.07
2022-11-05T23:54:22.468Z,9.08
2022-11-05T23:56:50.209Z,9.08
2022-11-05T23:59:19.529Z,9.09
